Etusivu
METAR-TAF:

METAR-TAF

Lentoasemat :

Brevig Mission, Alaska, Yhdysvallat

Leveyspiiri: 65-19-53N, Pituuspiiri: 166-27-57W, korkeus merenpinnasta: 11 m

Tämänhetkinen sää

Tämä raportti tehtiin 1 tunti ja 13 minuuttia sitten, kello 20.56 UTC
Tuuli 3 kn lännestä
Lämpötila 8°C
Kosteus 81%
Ilmanpaine 1012 hPa
Näkyvyys: 16.1 km
Muutamia pilviä 1000 ft:n korkeudessa

METAR: PFKT 172056Z AUTO 26003KT 10SM FEW010 08/05 A2988 RMK AO2 SLP118 T00830050 51004

Aika: 14:09 (22:09 UTC)


TAF: puuttuu

Säähavainnot ja -ennusteet yli 4000 lentoasemalta (METAR- ja TAF-raportit).

Käytössä olevat sääasemat on merkitty karttaan keltaisilla ja punaisilla pisteillä.

Aseta hiiri pisteen päälle nähdäksesi sääaseman nimen.

Klikkaa sitten nähdäksesi säähavainnot ja -ennusteet.

Kartan vaihtaminen: klikkaa mustalla rastilla varustettuja vihreitä pisteitä, niin voit zoomata sisään; viivalla varustettua vihreää pistettä, niin voit zoomata ulos tai vihreitä nuolia, niin pääset viereisille kartoille.


METAR-TAF: